Time;durP1;ratioP1;P1;durP2;ratioP2;P2;SDS_P1;SDS_P2;PMS_P1;PMS_P2;Temp;Humidity;BMP_temperature;BMP_pressure;BME280_temperature;BME280_humidity;BME280_pressure;Samples;Min_cycle;Max_cycle;Signal;HPM_P1;HPM_P2
2023/01/09 00:00:16;;;;;;;3.45;1.20;;;24.90;99.90;;;;;;5050917;28;20540;-84
2023/01/09 00:02:47;;;;;;;3.90;1.30;;;25.00;99.90;;;;;;5056091;28;20280;-83
2023/01/09 00:05:20;;;;;;;6.20;1.33;;;25.10;99.90;;;;;;5062756;28;20283;-84
2023/01/09 00:07:51;;;;;;;3.47;1.35;;;25.20;99.90;;;;;;5053933;28;20273;-84
2023/01/09 00:10:22;;;;;;;5.95;1.10;;;25.20;99.90;;;;;;5053893;28;20199;-83
2023/01/09 00:12:53;;;;;;;4.13;1.20;;;25.30;99.90;;;;;;5057843;28;20207;-84
2023/01/09 00:15:24;;;;;;;5.47;1.30;;;25.40;99.90;;;;;;5070683;28;20204;-85
2023/01/09 00:17:55;;;;;;;4.57;1.35;;;25.20;99.90;;;;;;5057171;28;20197;-89
2023/01/09 00:20:29;;;;;;;9.30;1.67;;;25.20;99.90;;;;;;5067328;28;20286;-89
2023/01/09 00:22:59;;;;;;;5.32;1.30;;;25.30;99.90;;;;;;5070895;28;20218;-86
2023/01/09 00:25:30;;;;;;;3.05;1.33;;;25.30;99.90;;;;;;5063151;28;20614;-86
2023/01/09 00:28:01;;;;;;;6.57;1.40;;;25.40;99.90;;;;;;5060772;28;20278;-87
2023/01/09 00:30:33;;;;;;;3.13;1.05;;;25.40;99.90;;;;;;5071621;28;20271;-86
2023/01/09 00:33:05;;;;;;;4.78;1.23;;;25.40;99.90;;;;;;5051437;28;20283;-86
2023/01/09 00:35:38;;;;;;;3.38;1.10;;;25.50;99.90;;;;;;5041564;28;20196;-86
2023/01/09 00:38:09;;;;;;;5.18;1.40;;;25.50;99.90;;;;;;5044053;28;20192;-86
2023/01/09 00:40:40;;;;;;;3.40;1.10;;;25.40;99.90;;;;;;5051176;28;20283;-88
2023/01/09 00:43:10;;;;;;;4.00;1.10;;;25.40;99.90;;;;;;5043136;28;20200;-87
2023/01/09 00:45:41;;;;;;;2.95;1.20;;;25.40;99.90;;;;;;5044628;28;20227;-86
2023/01/09 00:48:16;;;;;;;5.07;1.13;;;25.50;99.90;;;;;;5048764;28;20189;-87
2023/01/09 00:50:50;;;;;;;5.68;1.38;;;25.60;99.90;;;;;;5067643;28;20234;-87
2023/01/09 00:53:24;;;;;;;4.65;1.33;;;25.70;99.90;;;;;;5057056;28;20590;-85
2023/01/09 00:55:56;;;;;;;7.30;1.60;;;25.70;99.90;;;;;;5058505;28;20299;-87
2023/01/09 00:58:27;;;;;;;6.28;1.50;;;25.80;99.90;;;;;;5057103;28;20279;-87
2023/01/09 01:01:00;;;;;;;3.88;1.08;;;25.80;99.90;;;;;;5073957;28;20292;-89
2023/01/09 01:03:32;;;;;;;3.67;1.40;;;25.80;99.90;;;;;;5059781;28;22284;-88
2023/01/09 01:08:51;;;;;;;5.05;1.27;;;25.80;99.90;;;;;;5054898;28;20187;-86
2023/01/09 01:11:22;;;;;;;6.00;1.20;;;25.80;99.90;;;;;;5058741;28;20212;-88
2023/01/09 01:13:52;;;;;;;5.53;1.33;;;25.80;99.90;;;;;;5068509;28;20198;-87
2023/01/09 01:16:23;;;;;;;5.30;1.17;;;25.80;99.90;;;;;;5052557;28;20192;-86
2023/01/09 01:18:56;;;;;;;2.70;1.10;;;25.90;99.90;;;;;;5050719;28;20671;-86
2023/01/09 01:21:28;;;;;;;6.40;1.05;;;25.90;99.90;;;;;;5050329;28;20690;-87
2023/01/09 01:24:02;;;;;;;2.97;1.20;;;26.00;99.90;;;;;;5051402;28;20201;-88
2023/01/09 01:26:33;;;;;;;2.60;1.05;;;25.90;99.90;;;;;;5052068;28;20212;-89
2023/01/09 01:29:04;;;;;;;4.28;1.30;;;25.90;99.90;;;;;;5050434;28;20284;-88
2023/01/09 01:31:36;;;;;;;6.28;1.42;;;26.00;99.90;;;;;;5050808;28;20200;-88
2023/01/09 01:34:07;;;;;;;7.93;1.40;;;25.80;99.90;;;;;;5046991;28;20204;-86
2023/01/09 01:36:40;;;;;;;5.47;1.10;;;25.70;99.90;;;;;;5048702;28;20196;-87
2023/01/09 01:39:10;;;;;;;4.07;1.10;;;25.70;99.90;;;;;;5051941;28;20572;-87
2023/01/09 01:41:42;;;;;;;5.20;1.10;;;25.80;99.90;;;;;;5047601;28;20240;-84
2023/01/09 01:44:43;;;;;;;5.53;1.25;;;25.80;99.90;;;;;;5042612;28;20303;-84
2023/01/09 01:47:15;;;;;;;3.60;1.15;;;25.90;99.90;;;;;;5039713;28;20202;-85
2023/01/09 01:49:46;;;;;;;3.17;1.13;;;26.00;99.90;;;;;;5040906;28;20265;-85
2023/01/09 01:52:19;;;;;;;2.35;1.15;;;25.90;99.90;;;;;;5040006;28;20203;-84
2023/01/09 01:54:52;;;;;;;7.78;1.20;;;25.90;99.90;;;;;;5046093;28;20519;-91
2023/01/09 01:57:26;;;;;;;3.13;1.17;;;25.90;99.90;;;;;;5053417;28;20198;-87
2023/01/09 02:00:02;;;;;;;4.60;1.00;;;25.90;99.90;;;;;;5059222;28;20234;-88
2023/01/09 02:02:34;;;;;;;5.05;1.10;;;25.80;99.90;;;;;;5055154;28;20223;-88
2023/01/09 02:05:05;;;;;;;5.50;1.15;;;25.70;99.90;;;;;;5072927;28;20234;-88
2023/01/09 02:07:39;;;;;;;4.68;0.90;;;25.60;99.90;;;;;;5055087;28;20200;-87
2023/01/09 02:10:11;;;;;;;3.10;0.90;;;25.70;99.90;;;;;;5049787;28;20192;-89
2023/01/09 02:12:42;;;;;;;3.55;1.00;;;25.60;99.90;;;;;;5044588;28;20219;-85
2023/01/09 02:15:16;;;;;;;3.08;1.10;;;25.70;99.90;;;;;;5042639;28;20223;-88
2023/01/09 02:18:19;;;;;;;2.72;0.90;;;25.70;99.90;;;;;;5049774;28;20282;-86
2023/01/09 02:20:57;;;;;;;4.32;1.25;;;25.80;99.90;;;;;;5033885;28;20203;-87
2023/01/09 02:24:03;;;;;;;3.45;0.98;;;25.60;99.90;;;;;;5048930;28;20211;-88
2023/01/09 02:27:03;;;;;;;4.38;1.50;;;25.70;99.90;;;;;;5053772;28;20310;-89
2023/01/09 02:30:09;;;;;;;2.40;1.08;;;25.70;99.90;;;;;;5049037;28;20208;-88
2023/01/09 02:33:10;;;;;;;5.10;1.20;;;25.80;99.90;;;;;;5051355;28;20206;-93
2023/01/09 02:35:55;;;;;;;4.53;1.20;;;25.80;99.90;;;;;;5048500;28;20199;-91
2023/01/09 02:38:30;;;;;;;5.53;1.38;;;25.80;99.90;;;;;;5059490;28;20512;-91
2023/01/09 02:41:08;;;;;;;6.03;1.13;;;25.90;99.90;;;;;;5048793;28;20274;-92
2023/01/09 02:43:40;;;;;;;4.90;1.00;;;25.80;99.90;;;;;;5052609;28;20215;-89
2023/01/09 02:46:23;;;;;;;4.15;1.23;;;25.80;99.90;;;;;;5050861;28;20291;-89
2023/01/09 02:48:57;;;;;;;2.55;1.05;;;26.00;99.90;;;;;;5050028;28;20220;-88
2023/01/09 02:51:37;;;;;;;5.38;1.23;;;26.10;99.90;;;;;;5045836;28;20204;-90
2023/01/09 02:54:23;;;;;;;3.05;1.10;;;26.10;99.90;;;;;;5042929;28;20268;-88
2023/01/09 02:57:13;;;;;;;6.32;1.20;;;26.20;99.90;;;;;;5047078;28;20215;-89
2023/01/09 02:59:58;;;;;;;4.00;1.20;;;26.30;99.90;;;;;;5047427;28;20192;-89
2023/01/09 03:02:45;;;;;;;3.85;1.02;;;26.20;99.90;;;;;;5046472;28;20234;-91
2023/01/09 03:05:24;;;;;;;2.35;0.80;;;26.10;99.90;;;;;;5051007;28;20381;-93
2023/01/09 03:08:02;;;;;;;4.63;1.20;;;26.10;99.90;;;;;;5061199;28;20179;-92
2023/01/09 03:10:40;;;;;;;4.57;1.35;;;26.10;99.90;;;;;;5054946;28;20311;-92
2023/01/09 03:13:13;;;;;;;5.13;1.40;;;26.20;99.90;;;;;;5044404;28;20249;-89
2023/01/09 03:15:46;;;;;;;3.53;1.15;;;26.20;99.90;;;;;;5047909;28;20224;-90
2023/01/09 03:18:17;;;;;;;3.28;1.10;;;26.20;99.90;;;;;;5052027;28;20698;-92
2023/01/09 03:20:51;;;;;;;5.93;0.93;;;26.30;99.90;;;;;;5054166;28;20188;-93
2023/01/09 03:23:23;;;;;;;3.53;0.80;;;26.50;99.90;;;;;;5049080;28;20237;-92
2023/01/09 03:25:54;;;;;;;4.05;0.95;;;26.50;99.90;;;;;;5051259;28;20196;-90
2023/01/09 03:28:29;;;;;;;6.55;1.20;;;26.60;99.90;;;;;;5048058;28;20702;-91
2023/01/09 03:31:03;;;;;;;3.67;1.00;;;26.60;99.90;;;;;;5052736;28;20275;-89
2023/01/09 03:33:33;;;;;;;4.25;0.77;;;26.70;99.90;;;;;;5049360;28;20276;-92
2023/01/09 03:36:07;;;;;;;5.35;1.13;;;26.60;99.90;;;;;;5051704;28;20214;-92
2023/01/09 03:38:38;;;;;;;5.07;1.42;;;26.60;99.90;;;;;;5073531;28;20212;-91
2023/01/09 03:41:09;;;;;;;4.65;1.10;;;26.70;99.90;;;;;;5050362;28;20218;-91
2023/01/09 03:43:40;;;;;;;2.10;1.13;;;26.70;99.90;;;;;;5051881;28;20197;-91
2023/01/09 03:46:11;;;;;;;4.40;1.38;;;26.50;99.90;;;;;;5054256;28;20547;-90
2023/01/09 03:48:42;;;;;;;5.30;1.60;;;26.40;99.90;;;;;;5052486;28;20278;-92
2023/01/09 03:51:17;;;;;;;4.78;1.20;;;26.50;99.90;;;;;;5053045;28;20192;-91
2023/01/09 03:53:48;;;;;;;3.15;1.10;;;26.50;99.90;;;;;;5053022;28;20333;-92
2023/01/09 03:56:19;;;;;;;4.22;1.02;;;26.70;99.90;;;;;;5053084;28;20524;-94
2023/01/09 03:58:52;;;;;;;4.50;1.10;;;26.80;99.90;;;;;;5033602;28;20259;-91
2023/01/09 04:01:24;;;;;;;3.33;0.95;;;26.70;99.90;;;;;;5050949;28;20207;-89
2023/01/09 04:03:55;;;;;;;5.93;1.20;;;26.80;99.90;;;;;;5053457;28;20291;-91
2023/01/09 04:06:28;;;;;;;4.03;1.00;;;26.90;99.90;;;;;;5052735;28;20719;-92
2023/01/09 04:08:59;;;;;;;3.47;0.90;;;26.90;99.90;;;;;;5067666;28;20202;-92
2023/01/09 04:11:30;;;;;;;5.25;1.05;;;26.90;99.90;;;;;;5073742;28;20235;-91
2023/01/09 04:14:00;;;;;;;3.33;0.95;;;26.90;99.90;;;;;;5059609;28;20287;-90
2023/01/09 04:16:31;;;;;;;3.67;1.17;;;26.90;99.90;;;;;;5056064;28;20307;-88
2023/01/09 04:19:03;;;;;;;3.95;1.10;;;26.90;99.90;;;;;;5052562;28;20200;-86
2023/01/09 04:21:36;;;;;;;4.30;1.23;;;27.00;99.90;;;;;;5058701;28;21803;-88
2023/01/09 04:24:07;;;;;;;2.13;0.88;;;27.10;99.90;;;;;;5053195;28;20577;-87
2023/01/09 04:26:41;;;;;;;3.03;1.00;;;27.20;99.90;;;;;;5053459;28;20196;-86
2023/01/09 04:29:12;;;;;;;2.95;1.00;;;27.10;99.90;;;;;;5051278;28;20228;-87
2023/01/09 04:31:43;;;;;;;4.05;0.93;;;27.20;99.90;;;;;;5054968;28;20222;-90
2023/01/09 04:34:14;;;;;;;5.53;1.30;;;27.20;99.90;;;;;;5055039;28;20215;-88
2023/01/09 04:36:46;;;;;;;3.78;1.30;;;27.30;99.90;;;;;;5053960;28;20198;-88
2023/01/09 04:39:20;;;;;;;3.03;0.93;;;27.20;99.90;;;;;;5055135;28;20329;-88
2023/01/09 04:41:51;;;;;;;3.40;0.98;;;27.20;99.90;;;;;;5056133;28;20228;-90
2023/01/09 04:44:25;;;;;;;4.35;1.17;;;27.30;99.90;;;;;;5058441;28;20315;-86
2023/01/09 04:46:57;;;;;;;5.53;1.17;;;27.40;99.90;;;;;;5062892;28;20220;-87
2023/01/09 04:49:28;;;;;;;6.13;1.23;;;27.50;99.90;;;;;;5062910;28;20235;-89
2023/01/09 04:52:01;;;;;;;8.02;1.33;;;27.40;99.90;;;;;;5060252;28;20561;-91
2023/01/09 04:54:33;;;;;;;3.55;1.00;;;27.60;99.90;;;;;;5063309;28;20199;-88
2023/01/09 04:57:07;;;;;;;2.20;0.98;;;27.60;99.90;;;;;;5064968;28;20196;-88
2023/01/09 04:59:46;;;;;;;4.38;1.38;;;27.70;99.90;;;;;;5059345;28;20283;-90
2023/01/09 05:02:17;;;;;;;4.53;1.30;;;27.80;99.90;;;;;;5058881;28;20247;-89
2023/01/09 05:04:49;;;;;;;4.38;1.20;;;27.90;99.90;;;;;;5057615;28;20681;-90
2023/01/09 05:07:25;;;;;;;5.57;1.20;;;28.00;99.90;;;;;;5056186;28;22268;-89
2023/01/09 05:09:57;;;;;;;3.22;0.93;;;27.90;99.90;;;;;;5068991;28;20230;-90
2023/01/09 05:12:29;;;;;;;2.65;1.05;;;28.10;99.90;;;;;;5064789;28;20844;-89
2023/01/09 05:15:04;;;;;;;4.30;0.95;;;28.40;99.90;;;;;;5057539;28;20231;-89
2023/01/09 05:17:37;;;;;;;4.22;1.10;;;28.70;99.90;;;;;;5058428;28;20230;-89
2023/01/09 05:20:11;;;;;;;6.45;1.23;;;28.60;99.90;;;;;;5059788;28;20238;-89
2023/01/09 05:22:44;;;;;;;2.83;1.10;;;28.60;99.90;;;;;;5058139;28;20262;-88
2023/01/09 05:25:14;;;;;;;5.13;0.93;;;28.60;99.90;;;;;;5052448;28;20306;-89
2023/01/09 05:27:46;;;;;;;4.03;0.88;;;28.70;99.90;;;;;;5055856;28;20250;-90
2023/01/09 05:30:56;;;;;;;5.13;1.00;;;28.60;99.90;;;;;;5056336;28;20204;-88
2023/01/09 05:33:26;;;;;;;6.93;1.20;;;28.80;99.90;;;;;;5108719;22;20686;-87
2023/01/09 05:35:58;;;;;;;3.35;0.95;;;29.10;99.90;;;;;;5058058;28;20629;-89
2023/01/09 05:38:31;;;;;;;4.47;1.13;;;29.40;99.90;;;;;;5060993;28;20206;-87
2023/01/09 05:41:02;;;;;;;4.78;1.20;;;29.60;99.90;;;;;;5274350;22;20228;-87
2023/01/09 05:43:33;;;;;;;2.50;1.15;;;29.70;99.90;;;;;;5059353;28;20236;-87
2023/01/09 05:46:04;;;;;;;2.88;0.85;;;30.00;99.90;;;;;;5067239;28;20227;-85
2023/01/09 05:48:35;;;;;;;3.35;0.98;;;30.00;99.90;;;;;;5070143;28;20223;-90
2023/01/09 05:51:06;;;;;;;3.63;1.10;;;30.00;99.90;;;;;;5052438;28;20729;-88
2023/01/09 05:53:38;;;;;;;3.53;1.15;;;30.10;99.90;;;;;;5049207;28;20694;-88
2023/01/09 05:56:09;;;;;;;2.97;0.75;;;30.30;99.90;;;;;;5049404;28;20204;-87
2023/01/09 05:58:40;;;;;;;2.47;0.90;;;30.70;99.90;;;;;;5047526;28;20207;-86
2023/01/09 06:01:14;;;;;;;1.63;0.73;;;30.90;99.90;;;;;;5044806;28;20683;-86
2023/01/09 06:03:45;;;;;;;4.32;1.00;;;31.10;99.90;;;;;;5045493;28;20224;-87
2023/01/09 06:06:16;;;;;;;2.63;0.95;;;31.40;99.90;;;;;;5044153;28;20666;-88
2023/01/09 06:08:48;;;;;;;1.95;0.70;;;31.40;99.90;;;;;;5053305;28;20184;-89
2023/01/09 06:11:19;;;;;;;2.17;1.00;;;31.80;99.50;;;;;;5064474;28;20200;-88
2023/01/09 06:13:50;;;;;;;6.00;0.88;;;31.70;98.40;;;;;;5057581;28;20227;-90
2023/01/09 06:16:21;;;;;;;4.97;1.00;;;31.90;96.60;;;;;;5057012;28;20196;-90
2023/01/09 06:18:52;;;;;;;3.80;0.93;;;32.00;95.50;;;;;;5055350;28;20940;-87
2023/01/09 06:21:22;;;;;;;4.60;1.50;;;31.90;97.10;;;;;;5053454;28;20191;-87
2023/01/09 06:23:55;;;;;;;2.38;0.73;;;31.80;98.70;;;;;;5053148;28;20228;-87
2023/01/09 06:26:26;;;;;;;3.03;0.75;;;31.90;98.70;;;;;;5057013;28;20290;-87
2023/01/09 06:28:59;;;;;;;3.58;0.90;;;31.80;97.50;;;;;;5055698;28;20196;-87
2023/01/09 06:31:30;;;;;;;2.75;0.90;;;31.70;99.90;;;;;;5053473;28;20357;-90
2023/01/09 06:34:01;;;;;;;4.57;1.17;;;31.70;99.90;;;;;;5054258;28;20318;-89
2023/01/09 06:36:32;;;;;;;4.70;1.73;;;31.80;99.10;;;;;;5059703;28;20198;-87
2023/01/09 06:39:04;;;;;;;1.30;0.82;;;31.90;99.70;;;;;;5058961;28;20932;-87
2023/01/09 06:41:36;;;;;;;2.92;0.80;;;32.00;97.60;;;;;;5060225;28;20238;-88
2023/01/09 06:44:06;;;;;;;4.32;1.23;;;32.30;95.00;;;;;;5059150;28;20219;-87
2023/01/09 06:46:37;;;;;;;3.78;1.10;;;32.60;94.00;;;;;;5062300;28;20282;-88
2023/01/09 06:49:09;;;;;;;2.45;1.00;;;32.70;95.30;;;;;;5055324;28;20195;-88
2023/01/09 06:51:42;;;;;;;2.33;0.80;;;32.80;92.50;;;;;;5055360;28;20192;-87
2023/01/09 06:54:15;;;;;;;3.40;0.80;;;33.10;91.90;;;;;;5055195;28;21047;-90
2023/01/09 06:56:46;;;;;;;4.00;0.70;;;33.40;89.80;;;;;;5057346;28;20636;-88
2023/01/09 06:59:17;;;;;;;2.88;0.80;;;33.40;88.00;;;;;;5057967;28;20196;-90
2023/01/09 07:01:48;;;;;;;3.75;1.02;;;33.60;88.10;;;;;;5057638;28;20195;-90
2023/01/09 07:04:22;;;;;;;5.05;1.13;;;34.10;85.80;;;;;;5059341;28;20218;-87
2023/01/09 07:06:53;;;;;;;2.63;0.80;;;34.40;79.60;;;;;;5061640;28;20207;-89
2023/01/09 07:09:26;;;;;;;2.10;0.77;;;34.60;79.20;;;;;;5076201;28;20251;-88
2023/01/09 07:11:57;;;;;;;2.92;1.10;;;34.70;78.10;;;;;;5061664;28;20216;-88
2023/01/09 07:14:27;;;;;;;1.65;0.77;;;34.90;77.00;;;;;;5057192;28;20196;-87
2023/01/09 07:16:59;;;;;;;2.95;0.90;;;35.20;73.60;;;;;;5058894;28;20433;-88
2023/01/09 07:19:29;;;;;;;2.80;1.02;;;35.00;73.20;;;;;;5063024;28;20188;-89
2023/01/09 07:22:01;;;;;;;3.85;1.00;;;35.10;70.90;;;;;;5057695;28;20216;-90
2023/01/09 07:24:38;;;;;;;1.67;0.70;;;35.10;69.70;;;;;;5057031;28;20706;-89
2023/01/09 07:27:10;;;;;;;2.55;0.90;;;35.10;70.10;;;;;;5061736;28;20278;-89
2023/01/09 07:29:41;;;;;;;6.28;0.90;;;35.20;69.00;;;;;;5060341;28;20249;-87
2023/01/09 07:32:12;;;;;;;4.65;1.35;;;35.00;70.40;;;;;;5055083;28;20246;-86
2023/01/09 07:34:42;;;;;;;2.42;1.00;;;34.90;70.70;;;;;;5051220;28;20205;-86
2023/01/09 07:37:14;;;;;;;3.40;1.02;;;35.00;69.50;;;;;;5056143;28;20197;-86
2023/01/09 07:39:47;;;;;;;3.42;0.88;;;35.20;69.10;;;;;;5056922;28;20235;-84
2023/01/09 07:42:19;;;;;;;3.45;1.00;;;35.20;68.80;;;;;;5059397;28;23301;-87
2023/01/09 07:44:50;;;;;;;2.80;1.30;;;35.20;68.70;;;;;;5058915;28;20715;-86
2023/01/09 07:47:21;;;;;;;2.45;0.88;;;35.10;69.60;;;;;;5059989;28;20206;-88
2023/01/09 07:49:52;;;;;;;2.70;1.00;;;35.00;69.80;;;;;;5057102;28;20203;-88
2023/01/09 07:52:23;;;;;;;3.50;0.90;;;34.90;69.30;;;;;;5059704;28;20198;-87
2023/01/09 07:54:56;;;;;;;3.78;1.00;;;34.80;70.20;;;;;;5059615;28;20263;-87
2023/01/09 07:57:28;;;;;;;3.42;1.40;;;34.60;70.30;;;;;;5060283;28;20231;-86
2023/01/09 08:00:02;;;;;;;2.63;0.85;;;34.60;69.50;;;;;;5055027;28;20558;-85
2023/01/09 08:02:35;;;;;;;2.35;0.90;;;34.50;68.90;;;;;;5053036;28;20207;-85
2023/01/09 08:05:07;;;;;;;2.50;1.15;;;34.20;71.20;;;;;;5055602;28;20550;-86
2023/01/09 08:07:38;;;;;;;2.67;1.00;;;34.20;72.00;;;;;;5060301;28;20232;-87
2023/01/09 08:10:13;;;;;;;2.55;1.00;;;33.80;72.80;;;;;;5072131;28;20434;-88
2023/01/09 08:12:46;;;;;;;1.45;0.77;;;33.30;75.70;;;;;;5054097;28;20211;-88
2023/01/09 08:15:17;;;;;;;1.75;0.77;;;33.00;76.50;;;;;;5058770;28;20200;-88
2023/01/09 08:17:51;;;;;;;2.47;0.80;;;32.50;78.50;;;;;;5055953;28;20207;-87
2023/01/09 08:20:22;;;;;;;2.67;0.68;;;31.90;83.00;;;;;;5061170;28;20209;-88
2023/01/09 08:22:53;;;;;;;2.63;1.10;;;31.20;86.00;;;;;;5057965;28;22352;-88
2023/01/09 08:25:27;;;;;;;2.22;0.80;;;30.70;91.10;;;;;;5058107;28;20228;-87
2023/01/09 08:27:58;;;;;;;3.25;1.05;;;30.30;93.60;;;;;;5056129;28;20220;-87
2023/01/09 08:30:29;;;;;;;1.27;0.60;;;29.90;95.20;;;;;;5055178;28;20242;-87
2023/01/09 08:33:00;;;;;;;1.98;0.77;;;29.50;98.00;;;;;;5055417;28;20204;-87
2023/01/09 08:35:31;;;;;;;1.40;0.70;;;29.10;99.90;;;;;;5057109;28;20193;-87
2023/01/09 08:38:01;;;;;;;2.08;0.75;;;28.80;99.90;;;;;;5064547;28;20191;-85
2023/01/09 08:40:34;;;;;;;2.35;1.08;;;28.50;99.90;;;;;;5075091;28;20251;-86
2023/01/09 08:48:44;;;;;;;1.73;1.05;;;27.60;99.90;;;;;;4995426;28;20193;-86
2023/01/09 08:51:15;;;;;;;2.72;1.30;;;27.40;99.90;;;;;;5051026;28;23569;-85
2023/01/09 08:53:46;;;;;;;3.50;1.23;;;27.30;99.90;;;;;;5056318;28;20215;-85
2023/01/09 08:56:19;;;;;;;3.50;1.23;;;27.10;99.90;;;;;;5056061;28;20204;-86
2023/01/09 08:58:49;;;;;;;3.38;1.50;;;26.90;99.90;;;;;;5053339;28;20195;-86
2023/01/09 09:01:20;;;;;;;3.13;1.63;;;26.70;99.90;;;;;;5054073;28;20872;-85
2023/01/09 09:03:54;;;;;;;3.90;1.30;;;26.60;99.90;;;;;;5055876;28;20227;-88
2023/01/09 09:06:24;;;;;;;2.03;1.20;;;26.50;99.90;;;;;;5061052;28;20290;-89
2023/01/09 09:08:56;;;;;;;5.55;3.90;;;26.40;99.90;;;;;;5067494;28;20275;-86
2023/01/09 09:11:29;;;;;;;2.53;1.90;;;26.30;99.90;;;;;;5061715;28;20238;-87
2023/01/09 09:14:00;;;;;;;3.28;1.35;;;26.10;99.90;;;;;;5058130;28;20554;-83
2023/01/09 09:16:31;;;;;;;4.75;1.50;;;26.00;99.90;;;;;;5056345;28;20230;-86
2023/01/09 09:19:02;;;;;;;2.85;1.00;;;25.90;99.90;;;;;;5056040;28;20196;-83
2023/01/09 09:21:33;;;;;;;1.90;0.90;;;25.80;99.90;;;;;;5054320;28;20211;-84
2023/01/09 09:24:04;;;;;;;1.60;0.70;;;25.80;99.90;;;;;;5056322;28;20208;-85
2023/01/09 09:26:37;;;;;;;2.30;1.00;;;25.70;99.90;;;;;;5056374;28;20203;-86
2023/01/09 09:29:08;;;;;;;3.33;0.90;;;25.60;99.90;;;;;;5049392;28;20224;-84
2023/01/09 09:31:43;;;;;;;1.33;0.60;;;25.50;99.90;;;;;;5065386;28;20260;-85
2023/01/09 09:34:16;;;;;;;1.88;0.73;;;25.50;99.90;;;;;;5072153;28;20203;-85
2023/01/09 09:36:47;;;;;;;0.95;0.60;;;25.40;99.90;;;;;;5063458;28;20188;-85
2023/01/09 09:39:18;;;;;;;1.15;0.60;;;25.30;99.90;;;;;;5064211;28;20188;-84
2023/01/09 09:45:18;;;;;;;1.35;0.70;;;25.20;99.90;;;;;;5043203;28;20357;-85
2023/01/09 09:47:57;;;;;;;3.70;0.88;;;25.20;99.90;;;;;;5070211;28;20172;-85
2023/01/09 09:51:12;;;;;;;1.88;0.80;;;25.20;99.90;;;;;;5068690;28;20296;-85
2023/01/09 09:53:55;;;;;;;1.48;0.70;;;25.10;99.90;;;;;;5069298;28;20267;-86
2023/01/09 09:56:30;;;;;;;2.58;0.95;;;25.00;99.90;;;;;;5067729;28;20650;-86
2023/01/09 09:59:09;;;;;;;2.45;1.00;;;25.00;99.90;;;;;;5073083;28;21590;-85
2023/01/09 10:01:44;;;;;;;2.70;1.08;;;25.00;99.90;;;;;;5075243;28;20193;-90
2023/01/09 10:04:25;;;;;;;2.03;0.80;;;25.00;99.90;;;;;;5076440;28;20267;-85
2023/01/09 10:07:04;;;;;;;1.23;0.70;;;24.90;99.90;;;;;;5069592;28;20238;-84
2023/01/09 10:09:48;;;;;;;2.50;0.90;;;24.90;99.90;;;;;;5075910;28;20194;-87
2023/01/09 10:12:36;;;;;;;2.80;1.40;;;24.80;99.90;;;;;;5064004;28;20277;-86
2023/01/09 10:15:23;;;;;;;2.35;1.13;;;24.80;99.90;;;;;;5062792;28;20319;-86
2023/01/09 10:18:12;;;;;;;3.28;1.10;;;24.80;99.90;;;;;;5065344;28;20255;-86
2023/01/09 10:20:56;;;;;;;1.73;0.98;;;24.70;99.90;;;;;;5067058;28;20192;-85
2023/01/09 10:23:56;;;;;;;1.90;1.00;;;24.70;99.90;;;;;;5059090;28;20272;-84
2023/01/09 10:26:36;;;;;;;3.75;1.83;;;24.60;99.90;;;;;;5055801;28;20195;-85
2023/01/09 10:29:37;;;;;;;2.70;2.00;;;24.60;99.90;;;;;;5069638;28;20220;-86
2023/01/09 10:32:31;;;;;;;3.03;1.00;;;24.60;99.90;;;;;;5061737;28;21413;-85
2023/01/09 10:38:17;;;;;;;2.25;0.98;;;24.50;99.90;;;;;;5049843;28;20203;-84
2023/01/09 10:40:55;;;;;;;3.60;1.58;;;24.50;99.90;;;;;;5060488;28;21761;-86
2023/01/09 10:43:32;;;;;;;4.07;1.77;;;24.50;99.90;;;;;;5059548;28;20238;-86
2023/01/09 10:46:11;;;;;;;2.85;1.30;;;24.40;99.90;;;;;;5074767;28;20279;-85
2023/01/09 10:49:17;;;;;;;1.58;0.90;;;24.40;99.90;;;;;;5064585;28;20263;-87
2023/01/09 10:51:50;;;;;;;2.30;0.98;;;24.30;99.90;;;;;;5069729;28;20203;-88
2023/01/09 10:54:26;;;;;;;2.28;0.90;;;24.30;99.90;;;;;;5066951;28;20736;-84
2023/01/09 10:57:03;;;;;;;1.67;0.90;;;24.30;99.90;;;;;;5067867;28;20203;-87
2023/01/09 10:59:37;;;;;;;1.52;0.93;;;24.20;99.90;;;;;;5069573;28;20204;-86
2023/01/09 11:02:15;;;;;;;2.95;1.08;;;24.20;99.90;;;;;;5059567;28;20226;-87
2023/01/09 11:04:51;;;;;;;3.38;1.08;;;24.20;99.90;;;;;;5063700;28;20242;-87
2023/01/09 11:07:37;;;;;;;2.42;1.08;;;24.20;99.90;;;;;;5068324;28;20259;-86
2023/01/09 11:10:16;;;;;;;2.13;1.10;;;24.10;99.90;;;;;;5066043;28;20187;-86
2023/01/09 11:13:23;;;;;;;2.85;1.08;;;24.10;99.90;;;;;;5053560;28;20258;-85
2023/01/09 11:16:26;;;;;;;3.60;0.90;;;24.10;99.90;;;;;;5055952;28;20212;-87
2023/01/09 11:19:07;;;;;;;3.08;0.90;;;24.00;99.90;;;;;;5057339;28;20208;-86
2023/01/09 11:21:52;;;;;;;2.30;1.02;;;23.90;99.90;;;;;;5057928;28;20239;-84
2023/01/09 11:24:39;;;;;;;2.28;0.90;;;23.80;99.90;;;;;;5058310;28;20317;-87
2023/01/09 11:27:44;;;;;;;2.15;0.90;;;23.80;99.90;;;;;;5056112;28;20220;-86
2023/01/09 11:30:32;;;;;;;1.92;0.80;;;23.80;99.90;;;;;;5056326;28;20277;-87
2023/01/09 11:33:16;;;;;;;2.20;0.82;;;23.90;99.90;;;;;;5057940;28;20226;-86
2023/01/09 11:38:58;;;;;;;2.20;0.80;;;23.90;99.90;;;;;;4983994;22;2554203;-87
2023/01/09 11:41:33;;;;;;;1.63;0.85;;;23.90;99.90;;;;;;5027726;28;20198;-86
2023/01/09 11:44:06;;;;;;;2.83;0.70;;;23.90;99.90;;;;;;5026897;28;20315;-86
2023/01/09 11:46:43;;;;;;;1.77;0.70;;;23.90;99.90;;;;;;5027077;28;20205;-87
2023/01/09 11:49:25;;;;;;;2.45;0.80;;;23.80;99.90;;;;;;5032525;28;20659;-86
2023/01/09 11:52:18;;;;;;;3.58;1.00;;;23.80;99.90;;;;;;5025544;28;20205;-87
2023/01/09 11:54:57;;;;;;;1.35;0.70;;;23.80;99.90;;;;;;5030512;28;20718;-87
2023/01/09 11:57:28;;;;;;;1.10;0.70;;;23.70;99.90;;;;;;5029343;28;20193;-86
2023/01/09 12:00:03;;;;;;;1.42;0.80;;;23.70;99.90;;;;;;5030178;28;20217;-86
2023/01/09 12:02:59;;;;;;;1.67;0.80;;;23.70;99.90;;;;;;5033220;28;20189;-86
2023/01/09 12:05:39;;;;;;;4.40;1.02;;;23.70;99.90;;;;;;5030854;28;20220;-86
2023/01/09 12:08:35;;;;;;;3.47;0.80;;;23.60;99.90;;;;;;5055520;28;20276;-87
2023/01/09 12:11:25;;;;;;;2.13;0.80;;;23.50;99.90;;;;;;5037468;28;20291;-86
2023/01/09 12:14:34;;;;;;;1.52;0.70;;;23.40;99.90;;;;;;5030280;28;20199;-86
2023/01/09 12:17:36;;;;;;;2.05;0.80;;;23.40;99.90;;;;;;5025810;28;20314;-86
2023/01/09 12:20:37;;;;;;;1.38;0.70;;;23.40;99.90;;;;;;5024784;28;20216;-86
2023/01/09 12:23:25;;;;;;;4.13;1.00;;;23.40;99.90;;;;;;5029915;28;20266;-86
2023/01/09 12:26:07;;;;;;;2.38;0.80;;;23.40;99.90;;;;;;5029723;28;20704;-90
2023/01/09 12:29:06;;;;;;;2.38;0.95;;;23.40;99.90;;;;;;5034563;28;20215;-88
2023/01/09 12:32:03;;;;;;;4.15;1.10;;;23.30;99.90;;;;;;5031556;28;21113;-88
2023/01/09 12:34:48;;;;;;;2.53;1.20;;;23.30;99.90;;;;;;5031855;28;20200;-87
2023/01/09 12:37:49;;;;;;;2.25;0.95;;;23.30;99.90;;;;;;5029170;28;20263;-87
2023/01/09 12:40:51;;;;;;;2.50;1.00;;;23.30;99.90;;;;;;5039059;28;20232;-86
2023/01/09 12:43:32;;;;;;;1.95;0.90;;;23.40;99.90;;;;;;5027901;28;20216;-87
2023/01/09 12:46:16;;;;;;;2.33;0.65;;;23.30;99.90;;;;;;5031516;28;20221;-87
2023/01/09 12:49:16;;;;;;;2.63;0.95;;;23.30;99.90;;;;;;5032438;28;20716;-87
2023/01/09 12:51:50;;;;;;;1.45;0.90;;;23.30;99.90;;;;;;5031960;28;20212;-86
2023/01/09 12:54:29;;;;;;;2.03;1.00;;;23.30;99.90;;;;;;5033854;28;20703;-88
2023/01/09 12:57:05;;;;;;;1.17;0.93;;;23.30;99.90;;;;;;5032591;28;20298;-88
2023/01/09 12:59:42;;;;;;;1.75;0.90;;;23.30;99.90;;;;;;5028274;28;20208;-87
2023/01/09 13:02:31;;;;;;;3.08;1.15;;;23.20;99.90;;;;;;5030531;28;20208;-87
2023/01/09 13:05:04;;;;;;;3.67;1.20;;;23.20;99.90;;;;;;5038543;28;20332;-90
2023/01/09 13:07:42;;;;;;;4.18;1.08;;;23.20;99.90;;;;;;5054009;28;20320;-89
2023/01/09 13:10:26;;;;;;;2.42;0.95;;;23.10;99.90;;;;;;5035538;28;20284;-90
2023/01/09 13:12:59;;;;;;;2.47;0.93;;;23.10;99.90;;;;;;5033017;28;20193;-90
2023/01/09 13:15:35;;;;;;;1.90;0.95;;;23.10;99.90;;;;;;5031410;28;20736;-90
2023/01/09 13:18:13;;;;;;;2.15;1.00;;;23.10;99.90;;;;;;5028838;28;20334;-87
2023/01/09 13:20:48;;;;;;;2.20;1.10;;;23.10;99.90;;;;;;5027993;28;20231;-86
2023/01/09 13:23:27;;;;;;;1.83;1.05;;;23.00;99.90;;;;;;5025891;28;20204;-87
2023/01/09 13:26:00;;;;;;;7.68;1.30;;;23.00;99.90;;;;;;5027145;28;20239;-86
2023/01/09 13:28:33;;;;;;;2.80;0.98;;;23.00;99.90;;;;;;5029506;28;20707;-87
2023/01/09 13:31:39;;;;;;;5.53;1.30;;;22.90;99.90;;;;;;5028334;28;20284;-87
2023/01/09 13:34:16;;;;;;;3.58;1.25;;;22.90;99.90;;;;;;5029763;28;22470;-86
2023/01/09 13:36:54;;;;;;;3.20;1.10;;;22.90;99.90;;;;;;5028189;28;20196;-88
2023/01/09 13:39:28;;;;;;;2.47;1.20;;;22.90;99.90;;;;;;5031289;28;20208;-86
2023/01/09 13:44:53;;;;;;;1.48;0.77;;;22.80;99.90;;;;;;5035263;28;20257;-87
2023/01/09 13:47:26;;;;;;;1.92;0.90;;;22.80;99.90;;;;;;5032379;28;20220;-86
2023/01/09 13:50:24;;;;;;;1.25;0.88;;;22.80;99.90;;;;;;5034032;28;20287;-86
2023/01/09 13:52:55;;;;;;;2.38;1.20;;;22.80;99.90;;;;;;5034793;28;20276;-88
2023/01/09 13:55:34;;;;;;;3.28;1.23;;;22.80;99.90;;;;;;5028199;28;20664;-85